Welcome to our new website - Welkom op onze vernieuwde website - Bienvenue sur notre nouveau site web - Willkommen auf unserer neuen Website
Check our progress frequently. Prüfen Sie unsere Fortschritte regelmäßig. Consultez notre progression fréquemment. Komt u straks nog eens terug


Webcam zuid Meer informatie Webcam zuid


Onweer radar Meer informatie blitzortung!


Regen radar Meer informatie rain snow radar


Bezoek onze andere website:

Template documentation
and downloads

And another site


U vindt ons ook hier:

Het Weer Aktueel

UK Metoffice

European Weather Network

WeatherCloud

Weather Underground

AWEKAS

Citizen Weather Observer Program (CWOP)

HAMweather, WeatherForYou, PWS Weather

Wetterpage 24

Roosendaal op internet

VWKWEB

RadioZuidWestFM



Het weer levert geen direct gevaar op.    Er zijn geen waarschuwingen afgegeven.

METAR rapporten vliegvelden

   
EHWO - Viegbasis Woensdrecht ,Nederland
Afstand tot: ZW 23 km
Gewijzigd: 22-08-2018 04:25
Nevel, Grotendeels bewolkt  
Nevel, Grotendeels bewolkt  
   Wind: Kalm
Wind: Kalm
Temperatuur: 16°C
Dauwpunt: 16°C
Vochtigheid: 100%
Barometer: 1018 hPa
Bewolking: Grotendeels bewolkt
Zicht: 6 km
Bewolking: Gedeeltelijk bewolkt 4600 ft,
Grotendeels bewolkt 5700 ft
EHWO 220225Z AUTO 00000KT 6000 BR SCT046 BKN057 16/16 Q1018 WHT
EHGR - Vliegbasis Gilse-Rijen,Nederland
Afstand tot: O 51 km
Gewijzigd: 22-08-2018 04:25
Nevel, Licht bewolkt  
Nevel, Licht bewolkt  
   Wind: NW 3.7 km/h
Wind: NW 3.7 km/h
Temperatuur: 16°C
Dauwpunt: 16°C
Vochtigheid: 100%
Barometer: 1018 hPa
Bewolking: Licht bewolkt
Zicht: 2 km
Bewolking: Licht bewolkt 38000 ft
EHGR 220225Z AUTO 31002KT 2400 BR FEW380 16/16 Q1018 YLO
EHRD - Vliegbasis Rotterdam, Nederland
Afstand tot: N 65 km
Gewijzigd: 22-08-2018 04:25
Nevel, Grotendeels bewolkt  
Nevel, Grotendeels bewolkt  
   Wind: Westen 3.7 km/h
Wind: Westen 3.7 km/h
Temperatuur: 17°C
Dauwpunt: 16°C
Vochtigheid: 94%
Barometer: 1018 hPa
Bewolking: Grotendeels bewolkt
Zicht: 3 km
Bewolking: Licht bewolkt 1500 ft,
Grotendeels bewolkt 3700 ft
EHRD 220225Z AUTO 27002KT 3400 BR FEW015CB BKN037 17/16 Q1018 TEMPO 2500
EHAM - Schiphol airport, Nederland
Afstand tot: N 118 km
Gewijzigd: 22-08-2018 04:25
Shallow Fog, Licht bewolkt  
Shallow Fog, Licht bewolkt  
   Wind: varieert 1.9 km/h
Wind: varieert 1.9 km/h
Temperatuur: 18°C
Dauwpunt: 17°C
Vochtigheid: 94%
Barometer: 1018 hPa
Bewolking: Licht bewolkt
Zicht: 9 km
Bewolking: Licht bewolkt 4200 ft
EHAM 220225Z VRB01KT 9000 MIFG FEW042 18/17 Q1018 NOSIG
EBAW - Antwerp/Deurne, Belgium
Afstand tot: Z 54 km
Gewijzigd: 22-08-2018 04:20
Helder  
Helder  
   Wind: Noorden 5.6 km/h
Wind: Noorden 5.6 km/h
Temperatuur: 19°C
Dauwpunt: 16°C
Vochtigheid: 83%
Barometer: 1018 hPa
Zicht: meer dan 10 km
Bewolking: Helder
EBAW 220220Z AUTO 36003KT CAVOK 19/16 Q1018
EBBR - Brussel Airport, Belgium
Afstand tot: Z 94 km
Gewijzigd: 22-08-2018 04:20
Nevel, Gedeeltelijk bewolkt  
Nevel, Gedeeltelijk bewolkt  
   Wind: WNW 5.6 km/h
Wind: WNW 5.6 km/h
Temperatuur: 18°C
Dauwpunt: 17°C
Vochtigheid: 94%
Barometer: 1018 hPa
Bewolking: Gedeeltelijk bewolkt
Zicht: 4 km
Bewolking: Gedeeltelijk bewolkt
EBBR 220220Z 30003KT 3800 BR NSC 18/17 Q1018 TEMPO 2500 BR

Script ontwikkeld door  Saratoga-weather.org Aangepast voor de template door  Weerstation Leuven

Apparatuur in gebruik:

Weerstation
Davis VP2

Weerprogramma
Meteobridge

Weercomputer
Shuttle

Webleverancier
WeservIT

Davis VP2

Meteobridge

Shuttle

WeservIT